createdAt,value
2017-05-08T00:00:32.191Z,0
2017-05-08T00:01:13.075Z,0
2017-05-08T00:01:53.962Z,0
2017-05-08T00:02:34.853Z,0
2017-05-08T00:03:15.735Z,0
2017-05-08T00:03:56.612Z,0
2017-05-08T00:04:37.491Z,0
2017-05-08T00:05:18.402Z,0
2017-05-08T00:05:59.291Z,0
2017-05-08T00:06:40.156Z,0
2017-05-08T00:07:21.043Z,0
2017-05-08T00:08:01.928Z,0
2017-05-08T00:08:42.813Z,0
2017-05-08T00:09:23.677Z,0
2017-05-08T00:10:04.561Z,0
2017-05-08T00:10:45.439Z,0
2017-05-08T00:11:26.326Z,0
2017-05-08T00:12:07.207Z,0
2017-05-08T00:12:48.128Z,0
2017-05-08T00:13:28.977Z,0
2017-05-08T00:14:09.855Z,0
2017-05-08T00:14:50.744Z,0
2017-05-08T00:15:31.613Z,0
2017-05-08T00:16:12.496Z,0
2017-05-08T00:16:53.383Z,0
2017-05-08T00:17:34.262Z,0
2017-05-08T00:18:15.149Z,0
2017-05-08T00:18:56.035Z,0
2017-05-08T00:19:36.927Z,0
2017-05-08T00:20:17.800Z,0
2017-05-08T00:20:58.686Z,0
2017-05-08T00:21:39.575Z,0
2017-05-08T00:22:20.468Z,0
2017-05-08T00:23:01.355Z,0
2017-05-08T00:23:42.243Z,0
2017-05-08T00:24:23.126Z,0
2017-05-08T00:25:04.033Z,0
2017-05-08T00:25:44.920Z,0
2017-05-08T00:26:25.808Z,0
2017-05-08T00:27:06.701Z,0
2017-05-08T00:27:47.584Z,0
2017-05-08T00:28:28.463Z,0
2017-05-08T00:29:09.349Z,0
2017-05-08T00:29:50.225Z,0
2017-05-08T00:30:31.113Z,0
2017-05-08T00:31:12.012Z,0
2017-05-08T00:31:52.898Z,0
2017-05-08T00:32:33.796Z,0
2017-05-08T00:33:14.687Z,0
2017-05-08T00:33:55.568Z,0
2017-05-08T00:34:36.447Z,0
2017-05-08T00:35:17.326Z,0
2017-05-08T00:35:58.216Z,0
2017-05-08T00:36:39.100Z,0
2017-05-08T00:37:19.968Z,0
2017-05-08T00:38:00.845Z,0
2017-05-08T00:38:41.722Z,0
2017-05-08T00:39:22.604Z,0
2017-05-08T00:40:03.486Z,0
2017-05-08T00:40:44.361Z,0
2017-05-08T00:41:25.231Z,0
2017-05-08T00:42:06.118Z,0
2017-05-08T00:42:47.002Z,0
2017-05-08T00:43:27.884Z,0
2017-05-08T00:44:08.749Z,0
2017-05-08T00:44:49.624Z,0
2017-05-08T00:45:30.533Z,0
2017-05-08T00:46:11.405Z,0
2017-05-08T00:46:52.289Z,0
2017-05-08T00:47:33.151Z,0
2017-05-08T00:48:14.020Z,0
2017-05-08T00:48:54.905Z,0
2017-05-08T00:49:35.795Z,0
2017-05-08T00:50:16.666Z,0
2017-05-08T00:50:57.544Z,0
2017-05-08T00:51:38.461Z,0
2017-05-08T00:52:19.347Z,0
2017-05-08T00:53:00.224Z,0
2017-05-08T00:53:41.109Z,0
2017-05-08T00:54:22.018Z,0
2017-05-08T00:55:02.894Z,0
2017-05-08T00:55:43.758Z,0
2017-05-08T00:56:24.682Z,0
2017-05-08T00:57:05.534Z,0
2017-05-08T00:57:46.420Z,0
2017-05-08T00:58:27.283Z,0
2017-05-08T00:59:08.165Z,0
2017-05-08T00:59:49.062Z,0
2017-05-08T01:00:29.950Z,0
2017-05-08T01:01:10.833Z,0
2017-05-08T01:01:51.718Z,0
2017-05-08T01:02:32.607Z,0
2017-05-08T01:03:13.500Z,0
2017-05-08T01:03:54.391Z,0
2017-05-08T01:04:35.290Z,0
2017-05-08T01:05:16.179Z,0
2017-05-08T01:05:57.067Z,0
2017-05-08T01:06:37.951Z,0
2017-05-08T01:07:18.819Z,0
2017-05-08T01:07:59.710Z,0
2017-05-08T01:08:40.621Z,0
2017-05-08T01:09:21.496Z,0
2017-05-08T01:10:02.367Z,0
2017-05-08T01:10:43.237Z,0
2017-05-08T01:11:24.110Z,0
2017-05-08T01:12:04.987Z,0
2017-05-08T01:12:45.872Z,0
2017-05-08T01:13:26.751Z,0
2017-05-08T01:14:07.640Z,0
2017-05-08T01:14:48.523Z,0
2017-05-08T01:15:29.428Z,0
2017-05-08T01:16:10.294Z,0
2017-05-08T01:16:51.185Z,0
2017-05-08T01:17:32.075Z,0
2017-05-08T01:18:12.963Z,0
2017-05-08T01:18:53.833Z,0
2017-05-08T01:19:34.706Z,0
2017-05-08T01:20:15.606Z,0
2017-05-08T01:20:56.493Z,0
2017-05-08T01:21:37.378Z,0
2017-05-08T01:22:18.291Z,0
2017-05-08T01:22:59.173Z,0
2017-05-08T01:23:40.072Z,0
2017-05-08T01:24:20.924Z,0
2017-05-08T01:25:01.803Z,0
2017-05-08T01:25:42.692Z,0
2017-05-08T01:26:23.587Z,0
2017-05-08T01:27:04.499Z,0
2017-05-08T01:27:45.366Z,0
2017-05-08T01:28:26.265Z,0
2017-05-08T01:29:07.152Z,0
2017-05-08T01:29:48.042Z,0
2017-05-08T01:30:28.936Z,0
2017-05-08T01:31:09.823Z,0
2017-05-08T01:31:50.710Z,0
2017-05-08T01:32:31.590Z,0
2017-05-08T01:33:12.473Z,0
2017-05-08T01:33:53.360Z,0
2017-05-08T01:34:34.258Z,0
2017-05-08T01:35:15.123Z,0
2017-05-08T01:35:56.009Z,0
2017-05-08T01:36:36.896Z,0
2017-05-08T01:37:17.789Z,0
2017-05-08T01:37:58.660Z,0
2017-05-08T01:38:39.542Z,0
2017-05-08T01:39:20.425Z,0
2017-05-08T01:40:01.315Z,0
2017-05-08T01:40:42.198Z,0
2017-05-08T01:41:23.063Z,0
2017-05-08T01:42:03.954Z,0
2017-05-08T01:42:44.846Z,0
2017-05-08T01:43:25.725Z,0
2017-05-08T01:44:06.614Z,0
2017-05-08T01:44:47.474Z,0
2017-05-08T01:45:28.362Z,0
2017-05-08T01:46:09.241Z,0
2017-05-08T01:46:50.116Z,0
2017-05-08T01:47:30.994Z,0
2017-05-08T01:48:11.874Z,0
2017-05-08T01:48:52.762Z,0
2017-05-08T01:49:33.642Z,0
2017-05-08T01:50:14.530Z,0
2017-05-08T01:50:55.431Z,0
2017-05-08T01:51:36.322Z,0
2017-05-08T01:52:17.216Z,0
2017-05-08T01:52:58.112Z,0
2017-05-08T01:53:38.998Z,0
2017-05-08T01:54:19.880Z,0
2017-05-08T01:55:00.760Z,0
2017-05-08T01:55:41.642Z,0
2017-05-08T01:56:22.525Z,0
2017-05-08T01:57:03.489Z,0
2017-05-08T01:57:44.380Z,0
2017-05-08T01:58:25.277Z,0
2017-05-08T01:59:06.171Z,0
2017-05-08T01:59:47.045Z,0
2017-05-08T02:00:27.988Z,0
2017-05-08T02:01:08.861Z,0
2017-05-08T02:01:49.746Z,0
2017-05-08T02:02:30.631Z,0
2017-05-08T02:03:11.517Z,0
2017-05-08T02:03:52.397Z,0
2017-05-08T02:04:33.306Z,0
2017-05-08T02:05:14.177Z,0
2017-05-08T02:05:55.069Z,0
2017-05-08T02:06:35.949Z,0
2017-05-08T02:07:16.861Z,0
2017-05-08T02:07:57.713Z,0
2017-05-08T02:08:38.598Z,0
2017-05-08T02:09:19.472Z,0
2017-05-08T02:10:00.350Z,0
2017-05-08T02:10:41.248Z,0
2017-05-08T02:11:22.121Z,0
2017-05-08T02:12:02.995Z,0
2017-05-08T02:12:43.892Z,0
2017-05-08T02:13:24.767Z,0
2017-05-08T02:14:05.644Z,0
2017-05-08T02:14:46.502Z,0
2017-05-08T02:15:27.387Z,0
2017-05-08T02:16:08.274Z,0
2017-05-08T02:16:49.164Z,0
2017-05-08T02:17:30.037Z,0
2017-05-08T02:18:10.909Z,0
2017-05-08T02:18:51.788Z,0
2017-05-08T02:19:32.669Z,0
2017-05-08T02:20:13.552Z,0
2017-05-08T02:20:54.434Z,0
2017-05-08T02:21:35.355Z,0
2017-05-08T02:22:16.215Z,0
2017-05-08T02:22:57.101Z,0
2017-05-08T02:23:38.018Z,0
2017-05-08T02:24:18.896Z,0
2017-05-08T02:24:59.788Z,0
2017-05-08T02:25:40.665Z,0
2017-05-08T02:26:21.553Z,0
2017-05-08T02:27:02.439Z,0
2017-05-08T02:27:43.324Z,0
2017-05-08T02:28:24.204Z,0
2017-05-08T02:29:05.090Z,0
2017-05-08T02:29:45.987Z,0
2017-05-08T02:30:26.873Z,0
2017-05-08T02:31:07.756Z,0
2017-05-08T02:31:48.645Z,0
2017-05-08T02:32:29.541Z,0
2017-05-08T02:33:10.413Z,0
2017-05-08T02:33:51.299Z,0
2017-05-08T02:34:32.194Z,0
2017-05-08T02:35:13.076Z,0
2017-05-08T02:35:53.950Z,0
2017-05-08T02:36:34.846Z,0
2017-05-08T02:37:15.732Z,0
2017-05-08T02:37:56.595Z,0
2017-05-08T02:38:38.125Z,0
2017-05-08T02:39:18.994Z,0
2017-05-08T02:39:59.912Z,0
2017-05-08T02:40:40.766Z,0
2017-05-08T02:41:21.633Z,0
2017-05-08T02:42:02.510Z,0
2017-05-08T02:42:43.389Z,0
2017-05-08T02:43:24.277Z,0
2017-05-08T02:44:05.168Z,0
2017-05-08T02:44:46.061Z,0
2017-05-08T02:45:26.950Z,0
2017-05-08T02:46:07.842Z,0
2017-05-08T02:46:48.718Z,0
2017-05-08T02:47:29.597Z,0
2017-05-08T02:48:10.480Z,0
2017-05-08T02:48:51.363Z,0
2017-05-08T02:49:32.252Z,0
2017-05-08T02:50:13.138Z,0
2017-05-08T02:50:54.022Z,0
2017-05-08T02:51:34.901Z,0
2017-05-08T02:52:15.792Z,0
2017-05-08T02:52:56.669Z,0
2017-05-08T02:53:37.551Z,0
2017-05-08T02:54:18.428Z,0
2017-05-08T02:54:59.317Z,0
2017-05-08T02:55:40.213Z,0
2017-05-08T02:56:21.088Z,0
2017-05-08T02:57:01.969Z,0
2017-05-08T02:57:42.850Z,0
2017-05-08T02:58:23.740Z,0
2017-05-08T02:59:04.622Z,0
2017-05-08T02:59:45.507Z,0
2017-05-08T03:00:26.399Z,0
2017-05-08T03:01:07.289Z,0
2017-05-08T03:01:48.200Z,0
2017-05-08T03:02:29.091Z,0
2017-05-08T03:04:43.199Z,0
2017-05-08T03:05:24.084Z,0
2017-05-08T03:06:04.971Z,0
2017-05-08T03:06:45.855Z,0
2017-05-08T03:07:26.743Z,0
2017-05-08T03:08:07.622Z,0
2017-05-08T03:08:48.506Z,0
2017-05-08T03:09:29.382Z,0
2017-05-08T03:10:10.256Z,0
2017-05-08T03:10:51.145Z,0
2017-05-08T03:11:32.013Z,0
2017-05-08T03:12:12.905Z,0
2017-05-08T03:12:53.772Z,0
2017-05-08T03:13:34.661Z,0
2017-05-08T03:14:15.549Z,0
2017-05-08T03:14:56.433Z,0
2017-05-08T03:15:37.312Z,0
2017-05-08T03:16:18.201Z,0
2017-05-08T03:16:59.095Z,0
2017-05-08T03:17:39.985Z,0
2017-05-08T03:18:20.869Z,0
2017-05-08T03:19:01.755Z,0
2017-05-08T03:19:42.636Z,0
2017-05-08T03:20:23.516Z,0
2017-05-08T03:21:04.410Z,0
2017-05-08T03:21:45.295Z,0
2017-05-08T03:22:26.185Z,0
2017-05-08T03:23:07.087Z,5
2017-05-08T03:23:47.970Z,5
2017-05-08T03:24:28.847Z,5
2017-05-08T03:25:09.733Z,5
2017-05-08T03:25:50.612Z,5
2017-05-08T03:26:31.500Z,5
2017-05-08T03:27:12.394Z,5
2017-05-08T03:27:53.263Z,5
2017-05-08T03:28:34.152Z,5
2017-05-08T03:29:15.032Z,5
2017-05-08T03:29:55.910Z,5
2017-05-08T03:30:36.791Z,5
2017-05-08T03:31:17.660Z,5
2017-05-08T03:31:58.532Z,5
2017-05-08T03:32:39.427Z,5
2017-05-08T03:33:20.309Z,5
2017-05-08T03:34:01.192Z,5
2017-05-08T03:34:42.061Z,5
2017-05-08T03:35:22.923Z,5
2017-05-08T03:36:03.800Z,5
2017-05-08T03:36:44.682Z,5
2017-05-08T03:37:25.574Z,5
2017-05-08T03:38:06.464Z,5
2017-05-08T03:38:47.360Z,5
2017-05-08T03:39:28.243Z,5
2017-05-08T03:40:09.140Z,5
2017-05-08T03:40:50.022Z,5
2017-05-08T03:41:30.908Z,5
2017-05-08T03:42:11.813Z,5
2017-05-08T03:42:52.704Z,5
2017-05-08T03:43:33.582Z,5
2017-05-08T03:44:14.457Z,5
2017-05-08T03:44:55.334Z,5
2017-05-08T03:45:36.222Z,5
2017-05-08T03:46:17.090Z,5
2017-05-08T03:46:57.988Z,5
2017-05-08T03:47:38.852Z,5
2017-05-08T03:48:19.724Z,5
2017-05-08T03:49:00.609Z,5
2017-05-08T03:49:41.487Z,5
2017-05-08T03:50:22.364Z,5
2017-05-08T03:51:03.245Z,5
2017-05-08T03:51:44.115Z,5
2017-05-08T03:52:25.006Z,5
2017-05-08T03:53:05.870Z,5
2017-05-08T03:53:46.752Z,5
2017-05-08T03:54:27.631Z,5
2017-05-08T03:55:08.513Z,5
2017-05-08T03:55:49.394Z,5
2017-05-08T03:56:30.280Z,5
2017-05-08T03:57:11.174Z,5
2017-05-08T03:57:52.055Z,5
2017-05-08T03:58:32.930Z,10
2017-05-08T03:59:13.825Z,10
2017-05-08T03:59:54.699Z,10
2017-05-08T04:00:35.582Z,10
2017-05-08T04:01:16.881Z,10
2017-05-08T04:01:57.762Z,10
2017-05-08T04:02:39.100Z,10
2017-05-08T04:03:19.988Z,10
2017-05-08T04:04:00.873Z,10
2017-05-08T04:04:41.752Z,10
2017-05-08T04:05:22.628Z,10
2017-05-08T04:06:03.517Z,10
2017-05-08T04:06:44.416Z,15
2017-05-08T04:07:25.301Z,15
2017-05-08T04:08:06.166Z,15
2017-05-08T04:08:47.059Z,15
2017-05-08T04:09:27.966Z,15
2017-05-08T04:10:08.826Z,15
2017-05-08T04:10:49.689Z,15
2017-05-08T04:11:31.076Z,15
2017-05-08T04:12:11.954Z,15
2017-05-08T04:12:52.814Z,15
2017-05-08T04:13:33.667Z,15
2017-05-08T04:14:14.552Z,15
2017-05-08T04:14:55.428Z,15
2017-05-08T04:15:36.318Z,15
2017-05-08T04:16:17.189Z,20
2017-05-08T04:16:58.062Z,20
2017-05-08T04:17:38.935Z,20
2017-05-08T04:18:19.807Z,15
2017-05-08T04:19:00.710Z,15
2017-05-08T04:19:41.574Z,15
2017-05-08T04:20:22.459Z,15
2017-05-08T04:21:03.340Z,15
2017-05-08T04:21:44.210Z,15
2017-05-08T04:22:25.107Z,15
2017-05-08T04:23:05.985Z,10
2017-05-08T04:23:46.860Z,10
2017-05-08T04:24:27.728Z,10
2017-05-08T04:25:08.601Z,10
2017-05-08T04:25:49.473Z,10
2017-05-08T04:26:30.391Z,10
2017-05-08T04:27:11.278Z,15
2017-05-08T04:27:52.165Z,15
2017-05-08T04:28:33.041Z,15
2017-05-08T04:29:13.921Z,20
2017-05-08T04:29:54.824Z,20
2017-05-08T04:30:35.703Z,25
2017-05-08T04:31:16.586Z,25
2017-05-08T04:31:57.472Z,25
2017-05-08T04:32:38.348Z,20
2017-05-08T04:34:53.539Z,20
2017-05-08T04:35:34.407Z,25
2017-05-08T04:36:15.269Z,25
2017-05-08T04:36:56.155Z,30
2017-05-08T04:37:37.033Z,30
2017-05-08T04:38:17.973Z,30
2017-05-08T04:38:58.865Z,35
2017-05-08T04:39:39.723Z,30
2017-05-08T04:40:20.596Z,30
2017-05-08T04:41:01.468Z,30
2017-05-08T04:41:42.350Z,25
2017-05-08T04:42:23.236Z,20
2017-05-08T04:43:04.067Z,20
2017-05-08T04:43:44.938Z,15
2017-05-08T04:44:25.833Z,15
2017-05-08T04:45:06.689Z,15
2017-05-08T04:45:47.574Z,15
2017-05-08T04:46:28.441Z,15
2017-05-08T04:47:09.308Z,15
2017-05-08T04:47:50.167Z,15
2017-05-08T04:48:31.045Z,10
2017-05-08T04:49:11.876Z,10
2017-05-08T04:49:52.739Z,10
2017-05-08T04:50:33.654Z,10
2017-05-08T04:51:14.495Z,15
2017-05-08T04:51:55.352Z,15
2017-05-08T04:52:36.245Z,15
2017-05-08T04:53:17.130Z,15
2017-05-08T04:53:57.977Z,15
2017-05-08T04:54:38.832Z,15
2017-05-08T04:55:19.699Z,15
2017-05-08T04:56:00.573Z,15
2017-05-08T04:56:41.428Z,15
2017-05-08T04:57:22.290Z,20
2017-05-08T04:58:03.186Z,20
2017-05-08T04:58:44.022Z,20
2017-05-08T04:59:24.895Z,20
2017-05-08T05:00:05.776Z,20
2017-05-08T05:00:46.660Z,25
2017-05-08T05:01:27.538Z,25
2017-05-08T05:02:08.399Z,25
2017-05-08T05:02:49.274Z,30
2017-05-08T05:03:30.140Z,30
2017-05-08T05:04:11.036Z,30
2017-05-08T05:04:51.902Z,25
2017-05-08T05:05:32.782Z,25
2017-05-08T05:06:13.657Z,20
2017-05-08T05:06:54.553Z,20
2017-05-08T05:07:35.437Z,15
2017-05-08T05:08:17.212Z,15
2017-05-08T05:08:58.082Z,15
2017-05-08T05:09:38.968Z,10
2017-05-08T05:10:19.838Z,10
2017-05-08T05:11:03.271Z,10
2017-05-08T05:11:44.112Z,10
2017-05-08T05:12:24.991Z,10
2017-05-08T05:13:05.878Z,10
2017-05-08T05:13:46.758Z,15
2017-05-08T05:14:27.649Z,15
2017-05-08T05:15:08.531Z,15
2017-05-08T05:15:49.412Z,15
2017-05-08T05:16:30.322Z,15
2017-05-08T05:17:11.257Z,15
2017-05-08T05:17:52.172Z,15
2017-05-08T05:18:33.056Z,15
2017-05-08T05:19:13.925Z,10
2017-05-08T05:19:54.816Z,10
2017-05-08T05:20:35.687Z,15
2017-05-08T05:21:16.560Z,15
2017-05-08T05:21:57.451Z,15
2017-05-08T05:22:38.353Z,15
2017-05-08T05:23:19.226Z,15
2017-05-08T05:24:00.092Z,15
2017-05-08T05:24:40.988Z,15
2017-05-08T05:25:22.032Z,20
2017-05-08T05:26:02.909Z,20
2017-05-08T05:26:43.793Z,25
2017-05-08T05:27:24.671Z,30
2017-05-08T05:28:05.571Z,30
2017-05-08T05:28:46.450Z,35
2017-05-08T05:29:27.348Z,35
2017-05-08T05:30:08.218Z,35
2017-05-08T05:30:49.100Z,35
2017-05-08T05:31:30.001Z,30
2017-05-08T05:32:10.875Z,30
2017-05-08T05:32:51.766Z,25
2017-05-08T05:33:32.648Z,25
2017-05-08T05:34:13.520Z,25
2017-05-08T05:34:54.399Z,25
2017-05-08T05:35:35.284Z,25
2017-05-08T05:36:16.163Z,25
2017-05-08T05:36:57.047Z,25
2017-05-08T05:37:37.937Z,30
2017-05-08T05:38:18.813Z,30
2017-05-08T05:38:59.697Z,30
2017-05-08T05:39:40.576Z,35
2017-05-08T05:40:21.418Z,35
2017-05-08T05:41:02.302Z,40
2017-05-08T05:41:43.179Z,40
2017-05-08T05:42:24.062Z,45
2017-05-08T05:43:04.946Z,45
2017-05-08T05:43:45.832Z,40
2017-05-08T05:44:26.714Z,40
2017-05-08T05:45:07.586Z,40
2017-05-08T05:45:48.461Z,40
2017-05-08T05:46:29.344Z,40
2017-05-08T05:47:10.248Z,45
2017-05-08T05:47:51.135Z,50
2017-05-08T05:48:32.012Z,55
2017-05-08T05:49:12.919Z,60
2017-05-08T05:49:53.817Z,65
2017-05-08T05:50:34.659Z,70
2017-05-08T05:51:15.535Z,75
2017-05-08T05:51:56.413Z,80
2017-05-08T05:52:37.309Z,80
2017-05-08T05:53:18.151Z,80
2017-05-08T05:53:59.015Z,80
2017-05-08T05:54:39.929Z,75
2017-05-08T05:55:20.854Z,70
2017-05-08T05:56:01.734Z,65
2017-05-08T05:56:42.633Z,60
2017-05-08T05:57:23.516Z,60
2017-05-08T05:58:04.389Z,65
2017-05-08T05:59:00.240Z,65
2017-05-08T05:59:41.130Z,65
2017-05-08T06:00:22.015Z,65
2017-05-08T06:01:02.895Z,65
2017-05-08T06:01:43.782Z,65
2017-05-08T06:02:24.664Z,65
2017-05-08T06:03:05.553Z,70
2017-05-08T06:04:00.375Z,70
2017-05-08T06:04:41.316Z,75
2017-05-08T06:05:22.197Z,80
2017-05-08T06:07:56.446Z,70
2017-05-08T06:10:10.225Z,70
2017-05-08T06:12:34.454Z,65
2017-05-08T06:13:15.342Z,60
2017-05-08T06:13:58.811Z,60
2017-05-08T06:14:39.744Z,60
2017-05-08T06:15:20.601Z,55
2017-05-08T06:16:01.488Z,55
2017-05-08T06:20:08.680Z,60
2017-05-08T06:24:32.872Z,45
2017-05-08T06:25:13.757Z,50
2017-05-08T06:25:54.640Z,55
2017-05-08T06:26:35.523Z,65
2017-05-08T06:27:16.407Z,70
2017-05-08T06:27:57.282Z,70
2017-05-08T06:28:38.167Z,70
2017-05-08T06:29:19.052Z,65
2017-05-08T06:29:59.944Z,65
2017-05-08T06:30:48.987Z,70
2017-05-08T06:31:29.864Z,70
2017-05-08T06:32:10.751Z,75
2017-05-08T06:32:51.644Z,75
2017-05-08T06:33:33.354Z,70
2017-05-08T06:34:28.998Z,65
2017-05-08T06:35:09.883Z,65
2017-05-08T06:35:57.780Z,65
2017-05-08T06:36:38.669Z,65
2017-05-08T06:37:19.551Z,65
2017-05-08T06:38:02.990Z,65
2017-05-08T06:38:43.872Z,65
2017-05-08T06:39:27.392Z,65
2017-05-08T06:40:08.279Z,60
2017-05-08T06:40:49.167Z,55
2017-05-08T06:41:30.049Z,50
2017-05-08T06:42:10.936Z,45
2017-05-08T06:44:29.898Z,45
2017-05-08T06:45:10.783Z,45
2017-05-08T06:45:57.092Z,40
2017-05-08T06:46:37.979Z,40
2017-05-08T06:47:18.864Z,40
2017-05-08T06:48:05.456Z,40
2017-05-08T06:48:46.335Z,45
2017-05-08T06:49:27.217Z,50
2017-05-08T06:50:08.104Z,55
2017-05-08T06:50:56.566Z,60
2017-05-08T06:51:41.391Z,60
2017-05-08T06:52:22.276Z,60
2017-05-08T06:53:03.164Z,60
2017-05-08T06:53:44.041Z,65
2017-05-08T06:54:35.597Z,70
2017-05-08T06:55:16.462Z,75
2017-05-08T06:57:35.832Z,105
2017-05-08T06:58:16.705Z,115
2017-05-08T07:01:01.985Z,120
2017-05-08T07:01:42.871Z,115
2017-05-08T07:02:23.778Z,110
2017-05-08T07:03:04.662Z,110
2017-05-08T07:03:47.922Z,115
2017-05-08T07:04:28.811Z,115
2017-05-08T07:05:09.710Z,115
2017-05-08T07:05:50.599Z,115
2017-05-08T07:06:41.759Z,120
2017-05-08T07:07:25.369Z,125
2017-05-08T07:08:06.254Z,125
2017-05-08T07:08:47.136Z,130
2017-05-08T07:09:29.656Z,130
2017-05-08T07:10:10.530Z,140
2017-05-08T07:10:51.614Z,150
2017-05-08T07:11:32.490Z,155
2017-05-08T07:12:13.399Z,160
2017-05-08T07:12:54.342Z,170
2017-05-08T07:13:35.235Z,185
2017-05-08T07:14:16.129Z,190
2017-05-08T07:14:57.035Z,185
2017-05-08T07:15:37.927Z,180
2017-05-08T07:16:18.791Z,185
2017-05-08T07:16:59.664Z,185
2017-05-08T07:17:42.873Z,180
2017-05-08T07:18:23.751Z,170
2017-05-08T07:22:01.565Z,110
2017-05-08T07:22:42.437Z,100
2017-05-08T07:23:23.341Z,95
2017-05-08T07:24:04.204Z,95
2017-05-08T07:24:45.094Z,100
2017-05-08T07:25:26.005Z,105
2017-05-08T07:26:06.876Z,120
2017-05-08T07:26:47.745Z,140
2017-05-08T07:27:35.458Z,150
2017-05-08T07:28:16.345Z,155
2017-05-08T07:28:57.228Z,145
2017-05-08T07:29:38.132Z,140
2017-05-08T07:30:19.000Z,145
2017-05-08T07:30:59.889Z,145
2017-05-08T07:31:40.763Z,140
2017-05-08T07:32:21.663Z,130
2017-05-08T07:33:02.534Z,130
2017-05-08T07:33:43.415Z,110
2017-05-08T07:34:24.305Z,110
2017-05-08T07:35:05.197Z,120
2017-05-08T07:35:46.084Z,130
2017-05-08T07:36:27.001Z,135
2017-05-08T07:37:07.887Z,120
2017-05-08T07:37:48.774Z,115
2017-05-08T07:40:17.888Z,100
2017-05-08T07:41:01.889Z,105
2017-05-08T07:41:42.776Z,105
2017-05-08T07:42:23.658Z,110
2017-05-08T07:43:04.541Z,115
2017-05-08T07:45:33.694Z,120
2017-05-08T07:46:14.572Z,100
2017-05-08T07:48:53.989Z,110
2017-05-08T07:49:34.873Z,110
2017-05-08T07:50:30.677Z,105
2017-05-08T07:51:11.551Z,105
2017-05-08T07:51:52.462Z,100
2017-05-08T07:52:33.323Z,90
2017-05-08T07:53:14.249Z,85
2017-05-08T07:53:55.115Z,90
2017-05-08T07:54:35.999Z,95
2017-05-08T07:55:16.880Z,95
2017-05-08T07:55:57.757Z,85
2017-05-08T07:56:53.318Z,95
2017-05-08T07:57:34.206Z,105
2017-05-08T08:01:46.486Z,95
2017-05-08T08:02:54.681Z,105
2017-05-08T08:03:35.568Z,110
2017-05-08T08:07:38.869Z,85
2017-05-08T08:22:28.013Z,100
2017-05-08T08:23:08.878Z,90
2017-05-08T08:23:49.765Z,105
2017-05-08T08:24:30.659Z,115
2017-05-08T08:25:11.545Z,105
2017-05-08T08:25:52.417Z,95
2017-05-08T08:31:38.704Z,85
2017-05-08T08:32:19.520Z,85
2017-05-08T08:33:00.400Z,85
2017-05-08T08:33:49.648Z,75
2017-05-08T08:34:29.962Z,80
2017-05-08T08:35:10.844Z,75
2017-05-08T08:35:51.731Z,90
2017-05-08T08:36:32.614Z,100
2017-05-08T08:37:13.492Z,95
2017-05-08T08:37:54.367Z,90
2017-05-08T08:38:35.249Z,90
2017-05-08T08:39:16.138Z,90
2017-05-08T08:39:57.012Z,105
2017-05-08T08:40:37.891Z,95
2017-05-08T08:41:18.770Z,105
2017-05-08T08:41:59.650Z,105
2017-05-08T08:42:40.528Z,110
2017-05-08T08:43:21.405Z,110
2017-05-08T08:44:02.277Z,115
2017-05-08T08:44:43.157Z,115
2017-05-08T08:45:24.046Z,110
2017-05-08T08:46:04.922Z,115
2017-05-08T08:46:45.797Z,105
2017-05-08T08:47:26.675Z,105
2017-05-08T08:48:07.556Z,105
2017-05-08T08:48:48.433Z,105
2017-05-08T08:49:29.329Z,105
2017-05-08T08:50:10.225Z,100
2017-05-08T08:50:51.113Z,95
2017-05-08T08:51:31.998Z,100
2017-05-08T08:52:12.895Z,95
2017-05-08T08:52:53.773Z,90
2017-05-08T08:53:34.685Z,95
2017-05-08T08:54:15.578Z,90
2017-05-08T08:54:56.481Z,90
2017-05-08T08:55:37.443Z,95
2017-05-08T08:56:18.337Z,95
2017-05-08T08:56:59.214Z,90
2017-05-08T08:57:40.100Z,95
2017-05-08T08:58:20.992Z,100
2017-05-08T08:59:01.883Z,95
2017-05-08T08:59:42.776Z,90
2017-05-08T09:00:23.660Z,90
2017-05-08T09:01:19.257Z,90
2017-05-08T09:02:00.145Z,95
2017-05-08T09:02:41.029Z,90
2017-05-08T09:03:21.917Z,90
2017-05-08T09:04:02.796Z,100
2017-05-08T09:04:43.678Z,105
2017-05-08T09:05:24.557Z,105
2017-05-08T09:06:05.445Z,105
2017-05-08T09:06:46.331Z,105
2017-05-08T09:07:27.219Z,105
2017-05-08T09:08:08.091Z,100
2017-05-08T09:08:48.980Z,100
2017-05-08T09:09:29.865Z,115
2017-05-08T09:10:10.749Z,120
2017-05-08T09:10:54.547Z,115
2017-05-08T09:11:35.426Z,110
2017-05-08T09:12:16.316Z,100
2017-05-08T09:14:50.553Z,130
2017-05-08T09:15:31.815Z,140
2017-05-08T09:16:12.621Z,155
2017-05-08T09:16:53.483Z,185
2017-05-08T09:17:34.367Z,160
2017-05-08T09:18:15.231Z,140
2017-05-08T09:18:56.114Z,135
2017-05-08T09:19:37.005Z,150
2017-05-08T09:20:17.887Z,155
2017-05-08T09:21:01.544Z,165
2017-05-08T09:21:42.434Z,195
2017-05-08T09:22:23.298Z,225
2017-05-08T09:24:33.395Z,235
2017-05-08T09:25:14.371Z,230
2017-05-08T09:25:55.287Z,210
2017-05-08T09:26:36.168Z,205
2017-05-08T09:27:17.053Z,200
2017-05-08T09:27:57.949Z,200
2017-05-08T09:28:38.824Z,190
2017-05-08T09:29:19.708Z,190
2017-05-08T09:30:00.587Z,165
2017-05-08T09:30:41.476Z,135
2017-05-08T09:31:37.273Z,105
2017-05-08T09:32:18.190Z,100
2017-05-08T09:32:59.075Z,95
2017-05-08T09:33:39.957Z,90
2017-05-08T09:35:54.733Z,100
2017-05-08T09:36:35.703Z,100
2017-05-08T09:37:16.576Z,95
2017-05-08T09:37:57.490Z,95
2017-05-08T09:38:38.433Z,95
2017-05-08T09:39:19.313Z,100
2017-05-08T09:40:00.192Z,120
2017-05-08T09:40:41.072Z,130
2017-05-08T09:41:21.957Z,130
2017-05-08T09:42:02.832Z,135
2017-05-08T09:42:43.721Z,140
2017-05-08T09:43:24.642Z,140
2017-05-08T09:44:05.536Z,135
2017-05-08T09:44:46.420Z,130
2017-05-08T09:45:27.308Z,120
2017-05-08T09:46:08.192Z,120
2017-05-08T09:46:49.075Z,120
2017-05-08T09:47:29.960Z,125
2017-05-08T09:48:10.860Z,130
2017-05-08T09:48:51.743Z,135
2017-05-08T09:49:32.631Z,130
2017-05-08T09:50:13.507Z,120
2017-05-08T09:50:54.394Z,125
2017-05-08T09:51:35.302Z,125
2017-05-08T09:52:16.196Z,125
2017-05-08T09:52:57.086Z,115
2017-05-08T09:53:37.986Z,110
2017-05-08T09:54:18.872Z,115
2017-05-08T09:54:59.767Z,120
2017-05-08T09:55:40.661Z,125
2017-05-08T09:56:21.543Z,125
2017-05-08T09:57:02.430Z,125
2017-05-08T09:57:43.313Z,120
2017-05-08T09:58:24.195Z,115
2017-05-08T09:59:05.119Z,120
2017-05-08T09:59:46.077Z,125
2017-05-08T10:00:26.959Z,130
2017-05-08T10:01:07.866Z,135
2017-05-08T10:01:48.747Z,130
2017-05-08T10:02:29.627Z,130
2017-05-08T10:03:10.505Z,135
2017-05-08T10:03:51.399Z,135
2017-05-08T10:04:32.280Z,130
2017-05-08T10:05:13.161Z,145
2017-05-08T10:05:54.041Z,160
2017-05-08T10:06:47.784Z,180
2017-05-08T10:07:28.669Z,180
2017-05-08T10:08:09.551Z,175
2017-05-08T10:08:50.451Z,150
2017-05-08T10:09:31.324Z,145
2017-05-08T10:10:12.204Z,150
2017-05-08T10:10:53.092Z,155
2017-05-08T10:11:33.975Z,165
2017-05-08T10:12:14.869Z,160
2017-05-08T10:12:55.753Z,155
2017-05-08T10:13:36.646Z,150
2017-05-08T10:14:17.528Z,150
2017-05-08T10:14:58.411Z,150
2017-05-08T10:15:39.291Z,150
2017-05-08T10:16:20.166Z,145
2017-05-08T10:17:01.056Z,155
2017-05-08T10:17:41.978Z,160
2017-05-08T10:18:22.856Z,145
2017-05-08T10:19:03.720Z,135
2017-05-08T10:19:44.603Z,135
2017-05-08T10:20:25.518Z,140
2017-05-08T10:21:08.265Z,160
2017-05-08T10:21:49.150Z,150
2017-05-08T10:22:30.047Z,140
2017-05-08T10:23:10.952Z,145
2017-05-08T10:23:51.838Z,160
2017-05-08T10:24:32.694Z,150
2017-05-08T10:25:13.586Z,150
2017-05-08T10:25:54.463Z,150
2017-05-08T10:26:35.327Z,155
2017-05-08T10:27:16.210Z,170
2017-05-08T10:27:57.096Z,190
2017-05-08T10:28:37.980Z,200
2017-05-08T10:29:18.858Z,205
2017-05-08T10:29:59.746Z,205
2017-05-08T10:30:40.627Z,215
2017-05-08T10:31:21.502Z,240
2017-05-08T10:32:02.373Z,290
2017-05-08T10:32:43.285Z,300
2017-05-08T10:33:24.178Z,265
2017-05-08T10:34:05.129Z,210
2017-05-08T10:34:45.993Z,200
2017-05-08T10:35:26.866Z,195
2017-05-08T10:36:07.737Z,175
2017-05-08T10:36:48.612Z,165
2017-05-08T10:37:29.482Z,165
2017-05-08T10:38:10.386Z,170
2017-05-08T10:38:51.254Z,160
2017-05-08T10:39:32.138Z,160
2017-05-08T10:40:13.028Z,160
2017-05-08T10:40:55.041Z,155
2017-05-08T10:41:35.949Z,155
2017-05-08T10:42:16.820Z,150
2017-05-08T10:42:57.708Z,145
2017-05-08T10:43:38.588Z,140
2017-05-08T10:44:19.483Z,125
2017-05-08T10:45:14.900Z,130
2017-05-08T10:45:55.776Z,130
2017-05-08T10:46:36.712Z,130
2017-05-08T10:47:17.622Z,130
2017-05-08T10:47:58.537Z,130
2017-05-08T10:48:39.517Z,135
2017-05-08T10:49:20.422Z,130
2017-05-08T10:50:03.075Z,125
2017-05-08T10:50:43.946Z,125